sensor_id;sensor_type;location;lat;lon;timestamp;pressure;altitude;pressure_sealevel;temperature;humidity
38688;BME280;24444;53.216;-6.664;2022-07-18T00:01:02;100804.20;;;14.54;70.23
38688;BME280;24444;53.216;-6.664;2022-07-18T00:03:29;100804.62;;;14.40;70.68
38688;BME280;24444;53.216;-6.664;2022-07-18T00:05:57;100808.42;;;14.45;70.42
38688;BME280;24444;53.216;-6.664;2022-07-18T00:08:24;100809.09;;;13.85;71.86
38688;BME280;24444;53.216;-6.664;2022-07-18T00:10:52;100807.26;;;14.47;71.63
38688;BME280;24444;53.216;-6.664;2022-07-18T00:13:19;100804.56;;;14.29;71.30
38688;BME280;24444;53.216;-6.664;2022-07-18T00:15:46;100807.45;;;14.14;71.36
38688;BME280;24444;53.216;-6.664;2022-07-18T00:18:14;100806.61;;;14.27;72.16
38688;BME280;24444;53.216;-6.664;2022-07-18T00:20:41;100807.76;;;14.62;70.96
38688;BME280;24444;53.216;-6.664;2022-07-18T00:23:09;100808.03;;;14.52;71.03
38688;BME280;24444;53.216;-6.664;2022-07-18T00:25:36;100805.11;;;13.81;71.67
38688;BME280;24444;53.216;-6.664;2022-07-18T00:28:04;100803.98;;;14.13;72.18
38688;BME280;24444;53.216;-6.664;2022-07-18T00:30:31;100806.36;;;14.52;72.77
38688;BME280;24444;53.216;-6.664;2022-07-18T00:32:59;100806.25;;;14.30;72.30
38688;BME280;24444;53.216;-6.664;2022-07-18T00:35:26;100805.70;;;14.11;72.36
38688;BME280;24444;53.216;-6.664;2022-07-18T00:37:53;100803.66;;;14.15;73.17
38688;BME280;24444;53.216;-6.664;2022-07-18T00:40:21;100801.03;;;13.95;72.96
38688;BME280;24444;53.216;-6.664;2022-07-18T00:42:48;100799.85;;;14.21;72.08
38688;BME280;24444;53.216;-6.664;2022-07-18T00:45:16;100796.57;;;14.33;72.12
38688;BME280;24444;53.216;-6.664;2022-07-18T00:47:43;100791.16;;;14.50;72.64
38688;BME280;24444;53.216;-6.664;2022-07-18T00:50:11;100790.75;;;13.95;72.20
38688;BME280;24444;53.216;-6.664;2022-07-18T00:52:39;100788.49;;;14.18;74.29
38688;BME280;24444;53.216;-6.664;2022-07-18T00:55:08;100790.68;;;13.81;73.09
38688;BME280;24444;53.216;-6.664;2022-07-18T00:57:35;100789.58;;;14.07;73.29
38688;BME280;24444;53.216;-6.664;2022-07-18T01:00:04;100787.77;;;14.18;73.33
38688;BME280;24444;53.216;-6.664;2022-07-18T01:02:32;100784.98;;;13.95;72.45
38688;BME280;24444;53.216;-6.664;2022-07-18T01:04:59;100783.63;;;14.15;73.09
38688;BME280;24444;53.216;-6.664;2022-07-18T01:07:27;100784.12;;;14.16;72.45
38688;BME280;24444;53.216;-6.664;2022-07-18T01:09:54;100782.47;;;13.65;72.09
38688;BME280;24444;53.216;-6.664;2022-07-18T01:12:21;100776.69;;;13.28;73.13
38688;BME280;24444;53.216;-6.664;2022-07-18T01:14:49;100776.77;;;13.82;72.89
38688;BME280;24444;53.216;-6.664;2022-07-18T01:17:18;100775.55;;;13.20;72.86
38688;BME280;24444;53.216;-6.664;2022-07-18T01:19:47;100774.80;;;13.80;72.45
38688;BME280;24444;53.216;-6.664;2022-07-18T01:22:16;100773.55;;;14.11;71.71
38688;BME280;24444;53.216;-6.664;2022-07-18T01:24:44;100770.03;;;13.94;70.64
38688;BME280;24444;53.216;-6.664;2022-07-18T01:27:14;100771.08;;;14.26;70.17
38688;BME280;24444;53.216;-6.664;2022-07-18T01:29:42;100771.14;;;14.05;70.45
38688;BME280;24444;53.216;-6.664;2022-07-18T01:32:10;100771.97;;;13.99;70.51
38688;BME280;24444;53.216;-6.664;2022-07-18T01:34:38;100769.36;;;13.87;69.59
38688;BME280;24444;53.216;-6.664;2022-07-18T01:37:06;100766.53;;;13.68;69.64
38688;BME280;24444;53.216;-6.664;2022-07-18T01:39:34;100767.53;;;13.74;69.25
38688;BME280;24444;53.216;-6.664;2022-07-18T01:42:05;100766.71;;;13.18;69.57
38688;BME280;24444;53.216;-6.664;2022-07-18T01:44:34;100764.46;;;13.77;69.88
38688;BME280;24444;53.216;-6.664;2022-07-18T01:47:04;100764.10;;;13.37;70.09
38688;BME280;24444;53.216;-6.664;2022-07-18T01:49:31;100758.44;;;13.73;69.83
38688;BME280;24444;53.216;-6.664;2022-07-18T01:51:59;100755.30;;;13.76;69.66
38688;BME280;24444;53.216;-6.664;2022-07-18T01:54:29;100757.56;;;13.08;69.56
38688;BME280;24444;53.216;-6.664;2022-07-18T01:56:56;100757.53;;;13.81;69.44
38688;BME280;24444;53.216;-6.664;2022-07-18T01:59:24;100759.09;;;13.17;69.06
38688;BME280;24444;53.216;-6.664;2022-07-18T02:01:52;100757.09;;;13.40;68.80
38688;BME280;24444;53.216;-6.664;2022-07-18T02:04:19;100753.16;;;13.62;69.05
38688;BME280;24444;53.216;-6.664;2022-07-18T02:06:47;100751.51;;;13.10;69.16
38688;BME280;24444;53.216;-6.664;2022-07-18T02:09:14;100750.03;;;13.15;68.48
38688;BME280;24444;53.216;-6.664;2022-07-18T02:11:42;100745.60;;;13.05;68.99
38688;BME280;24444;53.216;-6.664;2022-07-18T02:14:09;100743.13;;;12.98;69.47
38688;BME280;24444;53.216;-6.664;2022-07-18T02:16:37;100742.56;;;12.92;68.90
38688;BME280;24444;53.216;-6.664;2022-07-18T02:19:04;100742.35;;;13.73;68.38
38688;BME280;24444;53.216;-6.664;2022-07-18T02:21:31;100742.40;;;13.42;68.20
38688;BME280;24444;53.216;-6.664;2022-07-18T02:23:59;100740.53;;;13.15;69.43
38688;BME280;24444;53.216;-6.664;2022-07-18T02:26:26;100737.71;;;13.32;69.05
38688;BME280;24444;53.216;-6.664;2022-07-18T02:28:54;100737.83;;;13.08;69.79
38688;BME280;24444;53.216;-6.664;2022-07-18T02:31:21;100737.58;;;12.77;69.60
38688;BME280;24444;53.216;-6.664;2022-07-18T02:33:49;100736.09;;;13.39;70.22
38688;BME280;24444;53.216;-6.664;2022-07-18T02:36:17;100735.05;;;13.20;68.86
38688;BME280;24444;53.216;-6.664;2022-07-18T02:38:44;100733.17;;;13.25;68.26
38688;BME280;24444;53.216;-6.664;2022-07-18T02:41:11;100729.31;;;13.08;68.08
38688;BME280;24444;53.216;-6.664;2022-07-18T02:43:38;100731.34;;;13.19;66.75
38688;BME280;24444;53.216;-6.664;2022-07-18T02:46:06;100732.78;;;13.37;66.97
38688;BME280;24444;53.216;-6.664;2022-07-18T02:48:33;100728.67;;;13.32;68.09
38688;BME280;24444;53.216;-6.664;2022-07-18T02:51:01;100726.46;;;13.05;67.19
38688;BME280;24444;53.216;-6.664;2022-07-18T02:53:28;100725.54;;;13.25;66.14
38688;BME280;24444;53.216;-6.664;2022-07-18T02:55:56;100723.47;;;13.34;66.01
38688;BME280;24444;53.216;-6.664;2022-07-18T02:58:23;100725.43;;;13.27;65.10
38688;BME280;24444;53.216;-6.664;2022-07-18T03:00:51;100722.53;;;13.02;64.00
38688;BME280;24444;53.216;-6.664;2022-07-18T03:03:18;100722.96;;;13.53;61.97
38688;BME280;24444;53.216;-6.664;2022-07-18T03:05:46;100722.07;;;13.50;61.82
38688;BME280;24444;53.216;-6.664;2022-07-18T03:08:13;100718.62;;;13.81;62.04
38688;BME280;24444;53.216;-6.664;2022-07-18T03:10:41;100717.25;;;13.31;62.58
38688;BME280;24444;53.216;-6.664;2022-07-18T03:13:09;100718.04;;;13.20;62.19
38688;BME280;24444;53.216;-6.664;2022-07-18T03:15:36;100718.48;;;13.94;61.65
38688;BME280;24444;53.216;-6.664;2022-07-18T03:18:03;100716.66;;;13.36;63.37
38688;BME280;24444;53.216;-6.664;2022-07-18T03:20:31;100718.44;;;13.74;62.14
38688;BME280;24444;53.216;-6.664;2022-07-18T03:23:04;100716.88;;;13.50;63.21
38688;BME280;24444;53.216;-6.664;2022-07-18T03:25:31;100716.69;;;13.32;63.54
38688;BME280;24444;53.216;-6.664;2022-07-18T03:27:58;100716.92;;;13.64;63.02
38688;BME280;24444;53.216;-6.664;2022-07-18T03:30:26;100712.88;;;13.42;64.69
38688;BME280;24444;53.216;-6.664;2022-07-18T03:32:53;100712.20;;;12.65;64.19
38688;BME280;24444;53.216;-6.664;2022-07-18T03:35:21;100706.34;;;12.95;64.24
38688;BME280;24444;53.216;-6.664;2022-07-18T03:37:48;100706.63;;;12.90;63.78
38688;BME280;24444;53.216;-6.664;2022-07-18T03:40:16;100700.86;;;12.90;64.62
38688;BME280;24444;53.216;-6.664;2022-07-18T03:42:43;100699.04;;;13.29;63.97
38688;BME280;24444;53.216;-6.664;2022-07-18T03:45:11;100697.65;;;13.10;63.42
38688;BME280;24444;53.216;-6.664;2022-07-18T03:47:39;100697.12;;;13.26;64.14
38688;BME280;24444;53.216;-6.664;2022-07-18T03:50:07;100695.47;;;12.99;64.18
38688;BME280;24444;53.216;-6.664;2022-07-18T03:52:34;100693.90;;;13.21;64.25
38688;BME280;24444;53.216;-6.664;2022-07-18T03:55:02;100692.72;;;13.00;64.95
38688;BME280;24444;53.216;-6.664;2022-07-18T03:57:29;100691.39;;;13.02;65.16
38688;BME280;24444;53.216;-6.664;2022-07-18T03:59:56;100688.73;;;13.18;65.60
38688;BME280;24444;53.216;-6.664;2022-07-18T04:02:24;100687.90;;;12.85;67.28
38688;BME280;24444;53.216;-6.664;2022-07-18T04:04:52;100686.82;;;12.91;66.47
38688;BME280;24444;53.216;-6.664;2022-07-18T04:07:19;100684.77;;;13.09;67.04
38688;BME280;24444;53.216;-6.664;2022-07-18T04:09:46;100684.76;;;12.66;67.74
38688;BME280;24444;53.216;-6.664;2022-07-18T04:12:14;100680.54;;;12.61;68.54
38688;BME280;24444;53.216;-6.664;2022-07-18T04:14:41;100681.18;;;12.39;69.37
38688;BME280;24444;53.216;-6.664;2022-07-18T04:17:09;100680.84;;;12.55;70.10
38688;BME280;24444;53.216;-6.664;2022-07-18T04:22:10;100675.90;;;11.88;68.73
38688;BME280;24444;53.216;-6.664;2022-07-18T04:24:38;100673.85;;;12.22;70.65
38688;BME280;24444;53.216;-6.664;2022-07-18T04:27:05;100668.93;;;11.83;71.25
38688;BME280;24444;53.216;-6.664;2022-07-18T04:29:33;100671.93;;;12.27;71.90
38688;BME280;24444;53.216;-6.664;2022-07-18T04:32:00;100671.57;;;12.23;71.53
38688;BME280;24444;53.216;-6.664;2022-07-18T04:34:28;100666.92;;;12.12;72.19
38688;BME280;24444;53.216;-6.664;2022-07-18T04:36:55;100666.32;;;12.18;72.76
38688;BME280;24444;53.216;-6.664;2022-07-18T04:39:23;100659.82;;;12.47;73.08
38688;BME280;24444;53.216;-6.664;2022-07-18T04:41:50;100659.07;;;12.02;73.27
38688;BME280;24444;53.216;-6.664;2022-07-18T04:44:18;100659.94;;;12.07;73.56
38688;BME280;24444;53.216;-6.664;2022-07-18T04:46:45;100662.60;;;12.38;74.32
38688;BME280;24444;53.216;-6.664;2022-07-18T04:49:13;100660.51;;;12.70;74.70
38688;BME280;24444;53.216;-6.664;2022-07-18T04:51:40;100660.70;;;11.96;74.85
38688;BME280;24444;53.216;-6.664;2022-07-18T04:54:08;100660.10;;;12.12;74.79
38688;BME280;24444;53.216;-6.664;2022-07-18T04:56:35;100660.84;;;12.10;74.62
38688;BME280;24444;53.216;-6.664;2022-07-18T04:59:03;100658.51;;;12.22;74.06
38688;BME280;24444;53.216;-6.664;2022-07-18T05:01:30;100657.97;;;12.10;74.61
38688;BME280;24444;53.216;-6.664;2022-07-18T05:03:58;100659.41;;;12.28;75.63
38688;BME280;24444;53.216;-6.664;2022-07-18T05:06:25;100660.59;;;12.20;75.36
38688;BME280;24444;53.216;-6.664;2022-07-18T05:08:53;100662.05;;;12.56;76.96
38688;BME280;24444;53.216;-6.664;2022-07-18T05:11:20;100661.61;;;12.13;77.50
38688;BME280;24444;53.216;-6.664;2022-07-18T05:13:48;100658.54;;;11.80;79.06
38688;BME280;24444;53.216;-6.664;2022-07-18T05:16:15;100657.85;;;12.19;79.99
38688;BME280;24444;53.216;-6.664;2022-07-18T05:18:43;100657.68;;;12.06;80.78
38688;BME280;24444;53.216;-6.664;2022-07-18T05:21:10;100658.79;;;12.03;80.83
38688;BME280;24444;53.216;-6.664;2022-07-18T05:23:37;100661.05;;;12.70;79.86
38688;BME280;24444;53.216;-6.664;2022-07-18T05:26:05;100658.71;;;12.42;80.30
38688;BME280;24444;53.216;-6.664;2022-07-18T05:28:32;100657.49;;;12.76;79.91
38688;BME280;24444;53.216;-6.664;2022-07-18T05:31:00;100654.72;;;12.38;80.31
38688;BME280;24444;53.216;-6.664;2022-07-18T05:33:27;100655.91;;;12.48;79.96
38688;BME280;24444;53.216;-6.664;2022-07-18T05:35:55;100655.17;;;12.49;79.87
38688;BME280;24444;53.216;-6.664;2022-07-18T05:38:22;100652.78;;;12.36;79.50
38688;BME280;24444;53.216;-6.664;2022-07-18T05:40:49;100652.30;;;12.84;79.03
38688;BME280;24444;53.216;-6.664;2022-07-18T05:43:17;100649.18;;;13.10;79.39
38688;BME280;24444;53.216;-6.664;2022-07-18T05:45:44;100651.48;;;12.60;79.71
38688;BME280;24444;53.216;-6.664;2022-07-18T05:48:12;100650.58;;;12.36;80.56
38688;BME280;24444;53.216;-6.664;2022-07-18T05:50:39;100652.08;;;12.96;79.53
38688;BME280;24444;53.216;-6.664;2022-07-18T05:53:07;100654.38;;;13.01;79.82
38688;BME280;24444;53.216;-6.664;2022-07-18T05:55:35;100653.47;;;13.20;79.26
38688;BME280;24444;53.216;-6.664;2022-07-18T05:58:02;100657.31;;;13.09;78.61
38688;BME280;24444;53.216;-6.664;2022-07-18T06:00:30;100659.88;;;12.97;79.33
38688;BME280;24444;53.216;-6.664;2022-07-18T06:02:57;100658.83;;;13.35;78.94
38688;BME280;24444;53.216;-6.664;2022-07-18T06:05:25;100660.65;;;13.22;79.23
38688;BME280;24444;53.216;-6.664;2022-07-18T06:07:54;100662.44;;;12.89;78.52
38688;BME280;24444;53.216;-6.664;2022-07-18T06:10:23;100661.88;;;13.18;79.29
38688;BME280;24444;53.216;-6.664;2022-07-18T06:12:51;100662.15;;;13.23;80.25
38688;BME280;24444;53.216;-6.664;2022-07-18T06:15:19;100658.69;;;13.25;79.90
38688;BME280;24444;53.216;-6.664;2022-07-18T06:17:47;100656.88;;;13.33;79.86
38688;BME280;24444;53.216;-6.664;2022-07-18T06:20:14;100652.81;;;13.39;80.17
38688;BME280;24444;53.216;-6.664;2022-07-18T06:22:42;100654.58;;;13.64;80.19
38688;BME280;24444;53.216;-6.664;2022-07-18T06:25:10;100652.90;;;13.47;80.23
38688;BME280;24444;53.216;-6.664;2022-07-18T06:27:38;100652.60;;;13.43;79.11
38688;BME280;24444;53.216;-6.664;2022-07-18T06:30:07;100657.30;;;13.78;78.19
38688;BME280;24444;53.216;-6.664;2022-07-18T06:32:35;100656.24;;;14.32;75.78
38688;BME280;24444;53.216;-6.664;2022-07-18T06:35:04;100654.94;;;14.12;75.69
38688;BME280;24444;53.216;-6.664;2022-07-18T06:37:32;100658.23;;;14.42;74.81
38688;BME280;24444;53.216;-6.664;2022-07-18T06:39:59;100654.59;;;14.38;75.43
38688;BME280;24444;53.216;-6.664;2022-07-18T06:42:27;100658.69;;;14.66;75.36
38688;BME280;24444;53.216;-6.664;2022-07-18T06:44:54;100653.67;;;14.61;74.37
38688;BME280;24444;53.216;-6.664;2022-07-18T06:47:22;100654.33;;;14.69;74.10
38688;BME280;24444;53.216;-6.664;2022-07-18T06:49:50;100654.04;;;14.94;73.01
38688;BME280;24444;53.216;-6.664;2022-07-18T06:52:17;100660.49;;;15.80;70.89
38688;BME280;24444;53.216;-6.664;2022-07-18T06:54:45;100659.38;;;15.82;70.42
38688;BME280;24444;53.216;-6.664;2022-07-18T06:57:12;100660.41;;;16.02;69.23
38688;BME280;24444;53.216;-6.664;2022-07-18T06:59:39;100658.85;;;16.59;66.89
38688;BME280;24444;53.216;-6.664;2022-07-18T07:02:06;100654.92;;;16.36;64.40
38688;BME280;24444;53.216;-6.664;2022-07-18T07:04:34;100656.88;;;16.58;64.64
38688;BME280;24444;53.216;-6.664;2022-07-18T07:07:02;100654.68;;;16.97;62.64
38688;BME280;24444;53.216;-6.664;2022-07-18T07:09:29;100650.72;;;17.93;58.40
38688;BME280;24444;53.216;-6.664;2022-07-18T07:11:56;100651.45;;;18.09;56.88
38688;BME280;24444;53.216;-6.664;2022-07-18T07:14:23;100647.46;;;17.98;56.11
38688;BME280;24444;53.216;-6.664;2022-07-18T07:16:50;100646.12;;;18.43;53.27
38688;BME280;24444;53.216;-6.664;2022-07-18T07:19:18;100643.40;;;18.88;49.95
38688;BME280;24444;53.216;-6.664;2022-07-18T07:21:45;100641.73;;;19.11;47.90
38688;BME280;24444;53.216;-6.664;2022-07-18T07:24:13;100638.97;;;20.17;46.09
38688;BME280;24444;53.216;-6.664;2022-07-18T07:26:40;100637.24;;;19.71;45.13
38688;BME280;24444;53.216;-6.664;2022-07-18T07:29:07;100636.23;;;19.96;44.46
38688;BME280;24444;53.216;-6.664;2022-07-18T07:31:35;100635.71;;;20.30;43.36
38688;BME280;24444;53.216;-6.664;2022-07-18T07:34:07;100631.92;;;20.32;43.12
38688;BME280;24444;53.216;-6.664;2022-07-18T07:36:35;100632.26;;;20.78;43.01
38688;BME280;24444;53.216;-6.664;2022-07-18T07:39:02;100630.25;;;21.52;41.97
38688;BME280;24444;53.216;-6.664;2022-07-18T07:41:29;100628.64;;;20.95;41.63
38688;BME280;24444;53.216;-6.664;2022-07-18T07:43:56;100630.27;;;21.32;42.66
38688;BME280;24444;53.216;-6.664;2022-07-18T07:46:24;100628.31;;;21.49;40.35
38688;BME280;24444;53.216;-6.664;2022-07-18T07:48:51;100621.93;;;21.70;39.67
38688;BME280;24444;53.216;-6.664;2022-07-18T07:51:18;100624.28;;;21.43;39.50
38688;BME280;24444;53.216;-6.664;2022-07-18T07:53:46;100620.35;;;21.48;39.08
38688;BME280;24444;53.216;-6.664;2022-07-18T07:56:13;100615.35;;;21.33;39.69
38688;BME280;24444;53.216;-6.664;2022-07-18T07:58:40;100618.54;;;21.74;38.55
38688;BME280;24444;53.216;-6.664;2022-07-18T08:01:07;100619.16;;;22.39;38.24
38688;BME280;24444;53.216;-6.664;2022-07-18T08:03:35;100620.67;;;22.33;37.74
38688;BME280;24444;53.216;-6.664;2022-07-18T08:06:02;100621.91;;;22.59;38.27
38688;BME280;24444;53.216;-6.664;2022-07-18T08:08:29;100618.43;;;22.56;36.58
38688;BME280;24444;53.216;-6.664;2022-07-18T08:10:56;100619.65;;;22.75;37.19
38688;BME280;24444;53.216;-6.664;2022-07-18T08:13:24;100613.61;;;22.48;36.54
38688;BME280;24444;53.216;-6.664;2022-07-18T08:15:51;100608.58;;;22.83;36.57
38688;BME280;24444;53.216;-6.664;2022-07-18T08:18:18;100609.26;;;22.27;36.57
38688;BME280;24444;53.216;-6.664;2022-07-18T08:20:46;100606.39;;;22.75;36.78
38688;BME280;24444;53.216;-6.664;2022-07-18T08:23:13;100606.93;;;22.93;36.00
38688;BME280;24444;53.216;-6.664;2022-07-18T08:25:42;100609.53;;;23.21;35.56
38688;BME280;24444;53.216;-6.664;2022-07-18T08:28:10;100610.64;;;23.58;35.46
38688;BME280;24444;53.216;-6.664;2022-07-18T08:30:38;100607.77;;;24.07;34.40
38688;BME280;24444;53.216;-6.664;2022-07-18T08:33:06;100610.79;;;23.41;35.25
38688;BME280;24444;53.216;-6.664;2022-07-18T08:35:34;100604.56;;;23.82;34.30
38688;BME280;24444;53.216;-6.664;2022-07-18T08:38:02;100607.20;;;24.26;35.19
38688;BME280;24444;53.216;-6.664;2022-07-18T08:40:30;100606.89;;;25.20;32.77
38688;BME280;24444;53.216;-6.664;2022-07-18T08:42:58;100604.13;;;25.60;32.49
38688;BME280;24444;53.216;-6.664;2022-07-18T08:45:25;100606.89;;;25.47;32.13
38688;BME280;24444;53.216;-6.664;2022-07-18T08:47:53;100604.97;;;26.09;31.41
38688;BME280;24444;53.216;-6.664;2022-07-18T08:50:20;100602.37;;;26.16;30.82
38688;BME280;24444;53.216;-6.664;2022-07-18T08:52:48;100599.63;;;26.77;30.22
38688;BME280;24444;53.216;-6.664;2022-07-18T08:55:16;100597.27;;;26.69;28.57
38688;BME280;24444;53.216;-6.664;2022-07-18T08:57:43;100593.70;;;26.56;29.19
38688;BME280;24444;53.216;-6.664;2022-07-18T09:00:11;100589.30;;;27.39;29.59
38688;BME280;24444;53.216;-6.664;2022-07-18T09:02:39;100580.82;;;26.95;28.32
38688;BME280;24444;53.216;-6.664;2022-07-18T09:05:17;100575.32;;;27.69;28.05
38688;BME280;24444;53.216;-6.664;2022-07-18T09:07:45;100572.91;;;27.96;27.07
38688;BME280;24444;53.216;-6.664;2022-07-18T09:10:13;100561.89;;;26.79;27.14
38688;BME280;24444;53.216;-6.664;2022-07-18T09:12:55;100557.62;;;27.72;27.78
38688;BME280;24444;53.216;-6.664;2022-07-18T09:15:23;100547.77;;;28.86;29.29
38688;BME280;24444;53.216;-6.664;2022-07-18T09:17:50;100546.38;;;29.24;28.13
38688;BME280;24444;53.216;-6.664;2022-07-18T09:20:17;100544.03;;;29.46;26.37
38688;BME280;24444;53.216;-6.664;2022-07-18T09:22:46;100539.00;;;30.05;26.21
38688;BME280;24444;53.216;-6.664;2022-07-18T09:25:15;100536.00;;;30.10;26.81
38688;BME280;24444;53.216;-6.664;2022-07-18T09:27:44;100533.77;;;30.39;26.15
38688;BME280;24444;53.216;-6.664;2022-07-18T09:30:16;100528.16;;;29.71;25.24
38688;BME280;24444;53.216;-6.664;2022-07-18T09:32:45;100529.20;;;29.73;25.43
38688;BME280;24444;53.216;-6.664;2022-07-18T09:35:15;100532.31;;;29.73;26.26
38688;BME280;24444;53.216;-6.664;2022-07-18T09:37:53;100533.40;;;29.48;24.38
38688;BME280;24444;53.216;-6.664;2022-07-18T09:40:23;100521.52;;;30.83;24.69
38688;BME280;24444;53.216;-6.664;2022-07-18T09:42:53;100519.21;;;31.09;24.91
38688;BME280;24444;53.216;-6.664;2022-07-18T09:45:26;100525.54;;;31.78;23.18
38688;BME280;24444;53.216;-6.664;2022-07-18T09:47:56;100518.80;;;31.13;24.89
38688;BME280;24444;53.216;-6.664;2022-07-18T09:50:26;100516.52;;;31.28;24.23
38688;BME280;24444;53.216;-6.664;2022-07-18T09:53:05;100508.25;;;30.64;24.00
38688;BME280;24444;53.216;-6.664;2022-07-18T09:55:33;100509.93;;;32.01;24.64
38688;BME280;24444;53.216;-6.664;2022-07-18T09:58:03;100512.36;;;31.48;24.50
38688;BME280;24444;53.216;-6.664;2022-07-18T10:00:34;100514.05;;;30.98;22.79
38688;BME280;24444;53.216;-6.664;2022-07-18T10:03:04;100508.01;;;31.33;23.25
38688;BME280;24444;53.216;-6.664;2022-07-18T10:05:33;100510.30;;;31.53;23.88
38688;BME280;24444;53.216;-6.664;2022-07-18T10:08:02;100509.98;;;30.94;23.05
38688;BME280;24444;53.216;-6.664;2022-07-18T10:10:31;100508.84;;;30.91;24.00
38688;BME280;24444;53.216;-6.664;2022-07-18T10:13:00;100507.47;;;30.38;22.91
38688;BME280;24444;53.216;-6.664;2022-07-18T10:15:30;100502.51;;;30.47;25.39
38688;BME280;24444;53.216;-6.664;2022-07-18T10:17:58;100508.25;;;30.17;23.71
38688;BME280;24444;53.216;-6.664;2022-07-18T10:20:29;100518.55;;;29.03;23.24
38688;BME280;24444;53.216;-6.664;2022-07-18T10:23:02;100509.94;;;29.21;25.81
38688;BME280;24444;53.216;-6.664;2022-07-18T10:25:34;100510.14;;;30.34;22.70
38688;BME280;24444;53.216;-6.664;2022-07-18T10:28:05;100513.81;;;29.09;24.66
38688;BME280;24444;53.216;-6.664;2022-07-18T10:30:37;100512.99;;;30.51;23.68
38688;BME280;24444;53.216;-6.664;2022-07-18T10:33:38;100510.45;;;30.56;22.16
38688;BME280;24444;53.216;-6.664;2022-07-18T10:36:08;100519.00;;;28.05;22.09
38688;BME280;24444;53.216;-6.664;2022-07-18T10:38:36;100515.05;;;28.25;21.56
38688;BME280;24444;53.216;-6.664;2022-07-18T10:41:07;100519.05;;;28.77;21.30
38688;BME280;24444;53.216;-6.664;2022-07-18T10:43:37;100516.33;;;28.33;20.92
38688;BME280;24444;53.216;-6.664;2022-07-18T10:46:07;100511.90;;;29.87;21.00
38688;BME280;24444;53.216;-6.664;2022-07-18T10:48:53;100509.66;;;29.24;21.52
38688;BME280;24444;53.216;-6.664;2022-07-18T10:51:30;100508.56;;;29.48;21.11
38688;BME280;24444;53.216;-6.664;2022-07-18T10:54:09;100506.97;;;27.62;22.71
38688;BME280;24444;53.216;-6.664;2022-07-18T10:57:10;100505.85;;;29.21;22.03
38688;BME280;24444;53.216;-6.664;2022-07-18T10:59:58;100504.29;;;30.92;22.15
38688;BME280;24444;53.216;-6.664;2022-07-18T11:02:44;100504.17;;;31.55;21.06
38688;BME280;24444;53.216;-6.664;2022-07-18T11:05:46;100511.68;;;30.62;20.63
38688;BME280;24444;53.216;-6.664;2022-07-18T11:08:17;100520.84;;;31.87;20.48
38688;BME280;24444;53.216;-6.664;2022-07-18T11:11:17;100515.01;;;31.75;19.68
38688;BME280;24444;53.216;-6.664;2022-07-18T11:13:45;100508.51;;;31.38;21.30
38688;BME280;24444;53.216;-6.664;2022-07-18T11:16:15;100503.12;;;31.29;20.40
38688;BME280;24444;53.216;-6.664;2022-07-18T11:19:17;100503.45;;;29.74;20.84
38688;BME280;24444;53.216;-6.664;2022-07-18T11:21:46;100496.04;;;28.90;22.06
38688;BME280;24444;53.216;-6.664;2022-07-18T11:24:13;100503.59;;;28.25;22.89
38688;BME280;24444;53.216;-6.664;2022-07-18T11:26:46;100491.78;;;28.01;24.92
38688;BME280;24444;53.216;-6.664;2022-07-18T11:29:15;100494.47;;;28.41;24.43
38688;BME280;24444;53.216;-6.664;2022-07-18T11:31:45;100488.41;;;28.41;24.80
38688;BME280;24444;53.216;-6.664;2022-07-18T11:34:13;100503.57;;;27.40;26.14
38688;BME280;24444;53.216;-6.664;2022-07-18T11:36:43;100498.77;;;27.20;23.57
38688;BME280;24444;53.216;-6.664;2022-07-18T11:39:12;100499.69;;;27.51;23.50
38688;BME280;24444;53.216;-6.664;2022-07-18T11:41:40;100508.54;;;27.08;22.67
38688;BME280;24444;53.216;-6.664;2022-07-18T11:44:17;100504.60;;;26.41;23.54
38688;BME280;24444;53.216;-6.664;2022-07-18T11:46:45;100499.85;;;26.73;23.63
38688;BME280;24444;53.216;-6.664;2022-07-18T11:49:12;100501.37;;;27.09;24.27
38688;BME280;24444;53.216;-6.664;2022-07-18T11:51:41;100495.89;;;26.19;24.27
38688;BME280;24444;53.216;-6.664;2022-07-18T11:54:10;100491.42;;;26.07;24.97
38688;BME280;24444;53.216;-6.664;2022-07-18T11:56:46;100488.50;;;25.95;25.70
38688;BME280;24444;53.216;-6.664;2022-07-18T11:59:13;100487.05;;;26.98;25.20
38688;BME280;24444;53.216;-6.664;2022-07-18T12:01:41;100486.74;;;26.72;25.11
38688;BME280;24444;53.216;-6.664;2022-07-18T12:04:16;100483.83;;;25.21;25.65
38688;BME280;24444;53.216;-6.664;2022-07-18T12:06:45;100487.07;;;25.76;25.74
38688;BME280;24444;53.216;-6.664;2022-07-18T12:09:12;100483.36;;;25.11;26.87
38688;BME280;24444;53.216;-6.664;2022-07-18T12:11:52;100480.96;;;26.04;26.78
38688;BME280;24444;53.216;-6.664;2022-07-18T12:14:19;100478.40;;;24.81;27.34
38688;BME280;24444;53.216;-6.664;2022-07-18T12:16:48;100477.01;;;25.68;27.72
38688;BME280;24444;53.216;-6.664;2022-07-18T12:19:17;100475.78;;;25.51;28.03
38688;BME280;24444;53.216;-6.664;2022-07-18T12:21:47;100477.34;;;24.83;28.55
38688;BME280;24444;53.216;-6.664;2022-07-18T12:24:20;100473.55;;;24.52;29.23
38688;BME280;24444;53.216;-6.664;2022-07-18T12:27:06;100467.76;;;25.46;29.86
38688;BME280;24444;53.216;-6.664;2022-07-18T12:29:54;100460.10;;;25.27;30.78
38688;BME280;24444;53.216;-6.664;2022-07-18T12:32:23;100456.71;;;25.29;30.73
38688;BME280;24444;53.216;-6.664;2022-07-18T12:34:54;100454.68;;;24.83;32.24
38688;BME280;24444;53.216;-6.664;2022-07-18T12:37:24;100448.76;;;25.20;31.81
38688;BME280;24444;53.216;-6.664;2022-07-18T12:39:56;100454.31;;;24.60;31.38
38688;BME280;24444;53.216;-6.664;2022-07-18T12:42:29;100445.53;;;24.89;33.40
38688;BME280;24444;53.216;-6.664;2022-07-18T12:44:57;100446.56;;;24.94;32.45
38688;BME280;24444;53.216;-6.664;2022-07-18T12:47:26;100447.10;;;25.50;31.99
38688;BME280;24444;53.216;-6.664;2022-07-18T12:49:53;100445.22;;;24.97;32.10
38688;BME280;24444;53.216;-6.664;2022-07-18T12:52:21;100434.13;;;25.75;32.64